createdAt,value
2017-07-28T00:00:06.072Z,1003.72
2017-07-28T00:00:46.601Z,1003.74
2017-07-28T00:01:27.131Z,1003.76
2017-07-28T00:02:07.635Z,1003.72
2017-07-28T00:02:48.175Z,1003.76
2017-07-28T00:03:28.699Z,1003.77
2017-07-28T00:04:09.246Z,1003.77
2017-07-28T00:04:49.819Z,1003.74
2017-07-28T00:05:30.345Z,1003.75
2017-07-28T00:06:10.885Z,1003.81
2017-07-28T00:06:51.389Z,1003.77
2017-07-28T00:07:31.944Z,1003.78
2017-07-28T00:08:12.476Z,1003.79
2017-07-28T00:08:52.995Z,1003.75
2017-07-28T00:09:33.509Z,1003.81
2017-07-28T00:10:14.039Z,1003.77
2017-07-28T00:10:54.554Z,1003.8
2017-07-28T00:11:35.059Z,1003.81
2017-07-28T00:12:15.595Z,1003.8
2017-07-28T00:12:56.138Z,1003.78
2017-07-28T00:13:36.677Z,1003.81
2017-07-28T00:14:17.197Z,1003.81
2017-07-28T00:14:57.720Z,1003.81
2017-07-28T00:15:38.234Z,1003.82
2017-07-28T00:16:18.775Z,1003.85
2017-07-28T00:16:59.314Z,1003.84
2017-07-28T00:17:39.816Z,1003.85
2017-07-28T00:18:20.353Z,1003.81
2017-07-28T00:19:00.860Z,1003.89
2017-07-28T00:19:41.409Z,1003.88
2017-07-28T00:20:21.924Z,1003.91
2017-07-28T00:21:02.452Z,1003.89
2017-07-28T00:21:42.961Z,1003.89
2017-07-28T00:22:23.487Z,1003.99
2017-07-28T00:23:04.014Z,1003.94
2017-07-28T00:23:44.550Z,1003.93
2017-07-28T00:24:25.073Z,1003.97
2017-07-28T00:25:05.584Z,1003.9
2017-07-28T00:25:46.078Z,1003.96
2017-07-28T00:26:26.613Z,1003.9
2017-07-28T00:27:07.115Z,1003.94
2017-07-28T00:27:47.656Z,1003.91
2017-07-28T00:28:28.196Z,1003.92
2017-07-28T00:29:08.723Z,1003.93
2017-07-28T00:29:49.247Z,1003.9
2017-07-28T00:30:29.783Z,1003.9
2017-07-28T00:31:10.309Z,1003.99
2017-07-28T00:31:50.837Z,1003.93
2017-07-28T00:32:31.370Z,1003.9
2017-07-28T00:33:11.900Z,1003.91
2017-07-28T00:33:52.435Z,1003.92
2017-07-28T00:34:32.960Z,1003.91
2017-07-28T00:35:13.498Z,1003.91
2017-07-28T00:35:54.050Z,1003.9
2017-07-28T00:36:34.555Z,1003.84
2017-07-28T00:37:15.135Z,1003.89
2017-07-28T00:37:55.667Z,1003.9
2017-07-28T00:38:36.192Z,1003.87
2017-07-28T00:39:16.714Z,1003.93
2017-07-28T00:39:57.266Z,1003.88
2017-07-28T00:40:37.793Z,1003.9
2017-07-28T00:41:18.340Z,1003.91
2017-07-28T00:41:58.845Z,1003.89
2017-07-28T00:42:39.355Z,1003.91
2017-07-28T00:43:19.887Z,1003.92
2017-07-28T00:44:00.398Z,1003.95
2017-07-28T00:44:40.918Z,1003.91
2017-07-28T00:45:21.469Z,1003.93
2017-07-28T00:46:02.007Z,1003.93
2017-07-28T00:46:42.543Z,1003.94
2017-07-28T00:47:23.070Z,1003.94
2017-07-28T00:48:03.586Z,1003.96
2017-07-28T00:48:44.104Z,1003.97
2017-07-28T00:49:24.645Z,1003.95
2017-07-28T00:50:05.194Z,1003.96
2017-07-28T00:50:45.717Z,1004.02
2017-07-28T00:51:26.245Z,1003.98
2017-07-28T00:52:06.763Z,1003.99
2017-07-28T00:52:47.268Z,1004.03
2017-07-28T00:53:27.802Z,1004.03
2017-07-28T00:54:08.319Z,1004.04
2017-07-28T00:54:48.838Z,1004.06
2017-07-28T00:55:29.344Z,1004.08
2017-07-28T00:56:09.846Z,1004.05
2017-07-28T00:56:50.381Z,1004.03
2017-07-28T00:57:30.883Z,1004.05
2017-07-28T00:58:11.418Z,1004.06
2017-07-28T00:58:51.955Z,1004.1
2017-07-28T00:59:32.438Z,1004.07
2017-07-28T01:00:12.961Z,1004.08
2017-07-28T01:00:53.504Z,1004.1
2017-07-28T01:01:34.042Z,1004.1
2017-07-28T01:02:14.582Z,1004.07
2017-07-28T01:02:55.187Z,1004.11
2017-07-28T01:03:35.714Z,1004.09
2017-07-28T01:04:16.252Z,1004.08
2017-07-28T01:04:56.789Z,1004.06
2017-07-28T01:05:37.332Z,1004.06
2017-07-28T01:06:17.847Z,1004.08
2017-07-28T01:06:58.374Z,1004.06
2017-07-28T01:07:38.875Z,1004.11
2017-07-28T01:08:19.390Z,1004.13
2017-07-28T01:08:59.916Z,1004.12
2017-07-28T01:09:40.444Z,1004.14
2017-07-28T01:10:20.996Z,1004.12
2017-07-28T01:11:01.513Z,1004.14
2017-07-28T01:11:42.046Z,1004.14
2017-07-28T01:12:22.590Z,1004.12
2017-07-28T01:13:03.125Z,1004.12
2017-07-28T01:13:43.650Z,1004.14
2017-07-28T01:14:24.193Z,1004.11
2017-07-28T01:15:04.727Z,1004.11
2017-07-28T01:15:45.248Z,1004.13
2017-07-28T01:16:25.775Z,1004.12
2017-07-28T01:17:06.303Z,1004.12
2017-07-28T01:17:46.816Z,1004.09
2017-07-28T01:18:27.352Z,1004.1
2017-07-28T01:19:07.865Z,1004.12
2017-07-28T01:19:48.396Z,1004.08
2017-07-28T01:20:28.938Z,1004.1
2017-07-28T01:21:09.465Z,1004.12
2017-07-28T01:21:50.006Z,1004.13
2017-07-28T01:22:30.552Z,1004.18
2017-07-28T01:23:11.074Z,1004.16
2017-07-28T01:23:51.612Z,1004.16
2017-07-28T01:24:32.125Z,1004.15
2017-07-28T01:25:12.666Z,1004.19
2017-07-28T01:25:53.164Z,1004.21
2017-07-28T01:26:33.675Z,1004.22
2017-07-28T01:27:14.198Z,1004.23
2017-07-28T01:27:54.733Z,1004.28
2017-07-28T01:28:35.268Z,1004.23
2017-07-28T01:29:15.808Z,1004.26
2017-07-28T01:29:56.326Z,1004.28
2017-07-28T01:30:36.851Z,1004.3
2017-07-28T01:31:17.383Z,1004.31
2017-07-28T01:31:57.978Z,1004.29
2017-07-28T01:32:38.508Z,1004.36
2017-07-28T01:33:19.033Z,1004.32
2017-07-28T01:33:59.554Z,1004.32
2017-07-28T01:34:40.099Z,1004.31
2017-07-28T01:35:20.635Z,1004.31
2017-07-28T01:36:01.147Z,1004.35
2017-07-28T01:36:41.675Z,1004.33
2017-07-28T01:37:22.215Z,1004.34
2017-07-28T01:38:02.764Z,1004.31
2017-07-28T01:38:43.300Z,1004.33
2017-07-28T01:39:23.832Z,1004.36
2017-07-28T01:40:04.376Z,1004.34
2017-07-28T01:40:44.913Z,1004.37
2017-07-28T01:41:25.454Z,1004.34
2017-07-28T01:42:05.995Z,1004.33
2017-07-28T01:42:46.504Z,1004.34
2017-07-28T01:43:27.013Z,1004.31
2017-07-28T01:44:07.530Z,1004.29
2017-07-28T01:44:48.080Z,1004.3
2017-07-28T01:45:28.626Z,1004.31
2017-07-28T01:46:09.141Z,1004.29
2017-07-28T01:46:49.680Z,1004.29
2017-07-28T01:47:30.204Z,1004.26
2017-07-28T01:48:10.736Z,1004.26
2017-07-28T01:48:51.273Z,1004.28
2017-07-28T01:49:31.786Z,1004.26
2017-07-28T01:50:12.298Z,1004.27
2017-07-28T01:50:52.823Z,1004.29
2017-07-28T01:51:33.351Z,1004.29
2017-07-28T01:52:13.866Z,1004.32
2017-07-28T01:52:54.401Z,1004.36
2017-07-28T01:53:34.958Z,1004.36
2017-07-28T01:54:15.475Z,1004.37
2017-07-28T01:54:55.992Z,1004.4
2017-07-28T01:55:36.511Z,1004.41
2017-07-28T01:56:17.015Z,1004.4
2017-07-28T01:56:57.525Z,1004.39
2017-07-28T01:57:38.056Z,1004.43
2017-07-28T01:58:18.552Z,1004.4
2017-07-28T01:58:59.091Z,1004.43
2017-07-28T01:59:39.603Z,1004.44
2017-07-28T02:00:20.151Z,1004.4
2017-07-28T02:01:00.686Z,1004.42
2017-07-28T02:01:41.199Z,1004.43
2017-07-28T02:02:21.751Z,1004.44
2017-07-28T02:03:02.290Z,1004.46
2017-07-28T02:03:42.809Z,1004.47
2017-07-28T02:04:23.357Z,1004.5
2017-07-28T02:05:03.881Z,1004.47
2017-07-28T02:05:44.398Z,1004.49
2017-07-28T02:06:24.918Z,1004.52
2017-07-28T02:07:05.426Z,1004.52
2017-07-28T02:07:45.974Z,1004.52
2017-07-28T02:08:26.487Z,1004.54
2017-07-28T02:09:06.997Z,1004.58
2017-07-28T02:09:47.531Z,1004.55
2017-07-28T02:10:28.030Z,1004.63
2017-07-28T02:11:08.528Z,1004.59
2017-07-28T02:11:49.058Z,1004.61
2017-07-28T02:12:29.579Z,1004.59
2017-07-28T02:13:10.105Z,1004.65
2017-07-28T02:13:50.634Z,1004.61
2017-07-28T02:14:31.159Z,1004.64
2017-07-28T02:15:11.691Z,1004.63
2017-07-28T02:15:52.268Z,1004.61
2017-07-28T02:16:32.788Z,1004.66
2017-07-28T02:17:13.318Z,1004.66
2017-07-28T02:17:53.869Z,1004.68
2017-07-28T02:18:34.382Z,1004.69
2017-07-28T02:19:14.927Z,1004.67
2017-07-28T02:19:55.462Z,1004.67
2017-07-28T02:20:35.994Z,1004.71
2017-07-28T02:21:16.514Z,1004.72
2017-07-28T02:21:57.050Z,1004.71
2017-07-28T02:22:37.581Z,1004.69
2017-07-28T02:23:18.104Z,1004.73
2017-07-28T02:23:58.651Z,1004.75
2017-07-28T02:24:39.153Z,1004.76
2017-07-28T02:25:19.677Z,1004.76
2017-07-28T02:26:00.191Z,1004.8
2017-07-28T02:26:40.725Z,1004.82
2017-07-28T02:27:21.262Z,1004.79
2017-07-28T02:28:01.784Z,1004.78
2017-07-28T02:28:42.306Z,1004.79
2017-07-28T02:29:22.839Z,1004.8
2017-07-28T02:30:03.373Z,1004.8
2017-07-28T02:30:43.919Z,1004.81
2017-07-28T02:31:24.446Z,1004.82
2017-07-28T02:32:04.980Z,1004.8
2017-07-28T02:32:47.423Z,1004.86
2017-07-28T02:33:27.970Z,1004.87
2017-07-28T02:34:08.507Z,1004.87
2017-07-28T02:34:49.037Z,1004.92
2017-07-28T02:35:29.581Z,1004.88
2017-07-28T02:36:10.086Z,1004.92
2017-07-28T02:36:50.608Z,1004.97
2017-07-28T02:37:31.134Z,1004.95
2017-07-28T02:38:11.658Z,1004.95
2017-07-28T02:38:52.203Z,1004.96
2017-07-28T02:39:32.721Z,1004.97
2017-07-28T02:40:13.235Z,1004.94
2017-07-28T02:40:53.740Z,1004.94
2017-07-28T02:41:34.273Z,1004.95
2017-07-28T02:42:14.804Z,1004.92
2017-07-28T02:42:55.323Z,1004.94
2017-07-28T02:43:35.840Z,1004.94
2017-07-28T02:44:16.362Z,1004.98
2017-07-28T02:44:56.892Z,1004.96
2017-07-28T02:45:37.411Z,1005.01
2017-07-28T02:46:17.919Z,1005
2017-07-28T02:46:58.456Z,1004.98
2017-07-28T02:47:39.016Z,1004.98
2017-07-28T02:48:19.549Z,1004.99
2017-07-28T02:49:00.076Z,1004.95
2017-07-28T02:49:40.600Z,1004.95
2017-07-28T02:50:21.122Z,1004.94
2017-07-28T02:51:01.630Z,1004.94
2017-07-28T02:51:42.143Z,1004.97
2017-07-28T02:52:22.661Z,1004.97
2017-07-28T02:53:03.197Z,1005
2017-07-28T02:53:43.718Z,1005.03
2017-07-28T02:54:24.245Z,1005.04
2017-07-28T02:55:04.811Z,1005.02
2017-07-28T02:55:45.305Z,1004.99
2017-07-28T02:56:25.827Z,1004.97
2017-07-28T02:57:06.346Z,1005
2017-07-28T02:57:46.863Z,1005
2017-07-28T02:58:27.391Z,1005.05
2017-07-28T02:59:07.904Z,1005.01
2017-07-28T02:59:48.487Z,1004.99
2017-07-28T03:00:28.989Z,1005
2017-07-28T03:01:09.511Z,1005.03
2017-07-28T03:01:50.049Z,1005.05
2017-07-28T03:02:30.566Z,1005.08
2017-07-28T03:03:11.083Z,1005.1
2017-07-28T03:03:51.597Z,1005.1
2017-07-28T03:04:32.098Z,1005.11
2017-07-28T03:05:12.626Z,1005.12
2017-07-28T03:05:53.168Z,1005.13
2017-07-28T03:06:33.709Z,1005.16
2017-07-28T03:07:14.249Z,1005.09
2017-07-28T03:07:54.769Z,1005.1
2017-07-28T03:08:35.302Z,1005.1
2017-07-28T03:09:15.824Z,1005.08
2017-07-28T03:09:56.355Z,1005.07
2017-07-28T03:10:36.863Z,1005.07
2017-07-28T03:11:17.384Z,1005.08
2017-07-28T03:11:57.941Z,1005.06
2017-07-28T03:12:38.479Z,1005.05
2017-07-28T03:13:19.060Z,1005.08
2017-07-28T03:13:59.560Z,1005.05
2017-07-28T03:14:40.125Z,1005.05
2017-07-28T03:15:20.656Z,1005.06
2017-07-28T03:16:01.206Z,1005.07
2017-07-28T03:16:41.745Z,1005.12
2017-07-28T03:17:22.289Z,1005.12
2017-07-28T03:18:02.918Z,1005.12
2017-07-28T03:18:43.382Z,1005.14
2017-07-28T03:19:23.909Z,1005.11
2017-07-28T03:20:04.438Z,1005.16
2017-07-28T03:20:44.975Z,1005.13
2017-07-28T03:21:25.488Z,1005.13
2017-07-28T03:22:06.034Z,1005.15
2017-07-28T03:22:46.545Z,1005.15
2017-07-28T03:23:27.092Z,1005.16
2017-07-28T03:24:07.631Z,1005.18
2017-07-28T03:24:48.167Z,1005.17
2017-07-28T03:25:28.712Z,1005.16
2017-07-28T03:26:09.243Z,1005.19
2017-07-28T03:26:49.766Z,1005.17
2017-07-28T03:27:30.276Z,1005.2
2017-07-28T03:28:10.795Z,1005.18
2017-07-28T03:28:51.304Z,1005.19
2017-07-28T03:29:31.844Z,1005.15
2017-07-28T03:30:12.369Z,1005.17
2017-07-28T03:30:52.902Z,1005.16
2017-07-28T03:31:33.398Z,1005.19
2017-07-28T03:32:13.961Z,1005.18
2017-07-28T03:32:54.475Z,1005.2
2017-07-28T03:33:35.004Z,1005.23
2017-07-28T03:34:15.487Z,1005.2
2017-07-28T03:34:56.013Z,1005.23
2017-07-28T03:35:36.522Z,1005.29
2017-07-28T03:36:17.071Z,1005.25
2017-07-28T03:36:57.599Z,1005.25
2017-07-28T03:37:38.123Z,1005.24
2017-07-28T03:38:18.663Z,1005.25
2017-07-28T03:38:59.186Z,1005.26
2017-07-28T03:39:39.700Z,1005.27
2017-07-28T03:40:20.247Z,1005.27
2017-07-28T03:41:00.776Z,1005.27
2017-07-28T03:41:41.304Z,1005.3
2017-07-28T03:42:21.833Z,1005.28
2017-07-28T03:43:02.365Z,1005.33
2017-07-28T03:43:42.911Z,1005.32
2017-07-28T03:44:23.437Z,1005.37
2017-07-28T03:45:03.966Z,1005.4
2017-07-28T03:45:44.520Z,1005.35
2017-07-28T03:46:25.188Z,1005.36
2017-07-28T03:47:05.699Z,1005.36
2017-07-28T03:47:46.231Z,1005.31
2017-07-28T03:48:26.765Z,1005.31
2017-07-28T03:49:07.290Z,1005.35
2017-07-28T03:49:47.797Z,1005.41
2017-07-28T03:50:28.300Z,1005.41
2017-07-28T03:51:08.837Z,1005.42
2017-07-28T03:51:49.416Z,1005.42
2017-07-28T03:52:29.926Z,1005.4
2017-07-28T03:53:10.483Z,1005.43
2017-07-28T03:53:50.995Z,1005.46
2017-07-28T03:54:31.515Z,1005.41
2017-07-28T03:55:12.075Z,1005.39
2017-07-28T03:55:52.613Z,1005.43
2017-07-28T03:56:33.131Z,1005.4
2017-07-28T03:57:13.661Z,1005.44
2017-07-28T03:57:54.149Z,1005.41
2017-07-28T03:58:34.696Z,1005.42
2017-07-28T03:59:15.275Z,1005.37
2017-07-28T03:59:55.753Z,1005.37
2017-07-28T04:00:36.253Z,1005.41
2017-07-28T04:01:16.806Z,1005.4
2017-07-28T04:01:57.307Z,1005.4
2017-07-28T04:02:37.893Z,1005.41
2017-07-28T04:03:18.372Z,1005.4
2017-07-28T04:03:58.904Z,1005.46
2017-07-28T04:04:39.481Z,1005.47
2017-07-28T04:05:20.039Z,1005.42
2017-07-28T04:06:00.573Z,1005.41
2017-07-28T04:06:41.112Z,1005.45
2017-07-28T04:07:21.666Z,1005.46
2017-07-28T04:08:02.168Z,1005.46
2017-07-28T04:08:42.670Z,1005.44
2017-07-28T04:09:23.302Z,1005.49
2017-07-28T04:10:03.840Z,1005.51
2017-07-28T04:10:44.353Z,1005.47
2017-07-28T04:11:24.897Z,1005.44
2017-07-28T04:12:05.425Z,1005.45
2017-07-28T04:12:45.968Z,1005.42
2017-07-28T04:13:26.501Z,1005.4
2017-07-28T04:14:06.994Z,1005.42
2017-07-28T04:14:47.528Z,1005.4
2017-07-28T04:15:28.072Z,1005.36
2017-07-28T04:16:08.614Z,1005.36
2017-07-28T04:16:49.152Z,1005.38
2017-07-28T04:17:29.643Z,1005.37
2017-07-28T04:18:10.184Z,1005.42
2017-07-28T04:18:50.729Z,1005.38
2017-07-28T04:19:31.261Z,1005.39
2017-07-28T04:20:11.803Z,1005.39
2017-07-28T04:20:52.363Z,1005.34
2017-07-28T04:21:32.843Z,1005.37
2017-07-28T04:22:15.163Z,1005.39
2017-07-28T04:22:56.091Z,1005.38
2017-07-28T04:23:38.962Z,1005.4
2017-07-28T04:24:19.473Z,1005.45
2017-07-28T04:25:00.048Z,1005.45
2017-07-28T04:25:40.640Z,1005.47
2017-07-28T04:26:21.224Z,1005.46
2017-07-28T04:27:02.147Z,1005.53
2017-07-28T04:27:42.733Z,1005.5
2017-07-28T04:28:23.227Z,1005.51
2017-07-28T04:29:04.369Z,1005.54
2017-07-28T04:29:46.168Z,1005.53
2017-07-28T04:30:30.426Z,1005.51
2017-07-28T04:31:11.640Z,1005.5
2017-07-28T04:31:54.664Z,1005.52
2017-07-28T04:32:38.325Z,1005.52
2017-07-28T04:33:22.211Z,1005.52
2017-07-28T04:34:03.074Z,1005.53
2017-07-28T04:34:44.253Z,1005.57
2017-07-28T04:35:26.140Z,1005.52
2017-07-28T04:36:06.959Z,1005.57
2017-07-28T04:36:49.736Z,1005.58
2017-07-28T04:37:30.714Z,1005.57
2017-07-28T04:38:11.487Z,1005.61
2017-07-28T04:38:52.241Z,1005.55
2017-07-28T04:39:33.363Z,1005.57
2017-07-28T04:40:15.541Z,1005.55
2017-07-28T04:40:56.453Z,1005.56
2017-07-28T04:41:39.167Z,1005.58
2017-07-28T04:42:19.869Z,1005.58
2017-07-28T04:43:00.202Z,1005.57
2017-07-28T04:43:45.962Z,1005.56
2017-07-28T04:44:33.736Z,1005.57
2017-07-28T04:45:15.140Z,1005.62
2017-07-28T04:46:04.439Z,1005.62
2017-07-28T04:46:55.035Z,1005.65
2017-07-28T04:47:38.327Z,1005.64
2017-07-28T04:48:28.731Z,1005.65
2017-07-28T04:49:22.686Z,1005.63
2017-07-28T04:50:19.480Z,1005.65
2017-07-28T04:53:15.715Z,1005.65
2017-07-28T04:53:57.914Z,1005.64
2017-07-28T04:54:38.529Z,1005.58
2017-07-28T04:55:19.317Z,1005.61
2017-07-28T04:55:59.875Z,1005.58
2017-07-28T04:56:40.515Z,1005.59
2017-07-28T04:57:23.198Z,1005.6
2017-07-28T04:58:03.924Z,1005.59
2017-07-28T04:58:44.625Z,1005.63
2017-07-28T04:59:25.317Z,1005.57
2017-07-28T05:00:07.950Z,1005.57
2017-07-28T05:00:48.634Z,1005.66
2017-07-28T05:01:32.066Z,1005.64
2017-07-28T05:02:16.220Z,1005.63
2017-07-28T05:02:56.934Z,1005.63
2017-07-28T05:03:47.288Z,1005.61
2017-07-28T05:04:31.651Z,1005.58
2017-07-28T05:05:12.223Z,1005.57
2017-07-28T05:05:52.897Z,1005.6
2017-07-28T05:06:36.239Z,1005.61
2017-07-28T05:07:17.655Z,1005.58
2017-07-28T05:07:58.232Z,1005.57
2017-07-28T05:08:40.936Z,1005.6
2017-07-28T05:09:21.903Z,1005.62
2017-07-28T05:10:07.201Z,1005.61
2017-07-28T05:10:48.518Z,1005.62
2017-07-28T05:11:29.325Z,1005.58
2017-07-28T05:12:09.825Z,1005.57
2017-07-28T05:17:06.949Z,1005.63
2017-07-28T05:19:27.400Z,1005.63
2017-07-28T05:20:08.588Z,1005.68
2017-07-28T05:20:50.028Z,1005.67
2017-07-28T05:21:30.699Z,1005.74
2017-07-28T05:22:11.205Z,1005.71
2017-07-28T05:22:51.769Z,1005.7
2017-07-28T05:23:32.310Z,1005.74
2017-07-28T05:24:12.838Z,1005.74
2017-07-28T05:24:53.397Z,1005.75
2017-07-28T05:25:33.885Z,1005.82
2017-07-28T05:26:14.406Z,1005.79
2017-07-28T05:26:54.887Z,1005.79
2017-07-28T05:27:35.423Z,1005.77
2017-07-28T05:28:15.916Z,1005.8
2017-07-28T05:28:56.453Z,1005.72
2017-07-28T05:29:36.941Z,1005.73
2017-07-28T05:30:17.508Z,1005.7
2017-07-28T05:30:58.000Z,1005.7
2017-07-28T05:31:38.599Z,1005.67
2017-07-28T05:32:19.095Z,1005.68
2017-07-28T05:32:59.602Z,1005.69
2017-07-28T05:33:40.150Z,1005.72
2017-07-28T05:34:20.660Z,1005.7
2017-07-28T05:35:01.215Z,1005.71
2017-07-28T05:35:41.649Z,1005.63
2017-07-28T05:36:22.291Z,1005.68
2017-07-28T05:37:02.767Z,1005.68
2017-07-28T05:37:43.323Z,1005.73
2017-07-28T05:38:23.842Z,1005.71
2017-07-28T05:39:04.305Z,1005.71
2017-07-28T05:39:44.818Z,1005.69
2017-07-28T05:40:25.288Z,1005.7
2017-07-28T05:41:05.787Z,1005.72
2017-07-28T05:41:46.370Z,1005.75
2017-07-28T05:42:26.860Z,1005.78
2017-07-28T05:43:07.371Z,1005.77
2017-07-28T05:43:47.823Z,1005.76
2017-07-28T05:44:28.312Z,1005.76
2017-07-28T05:45:08.893Z,1005.74
2017-07-28T05:45:49.399Z,1005.7
2017-07-28T05:46:29.900Z,1005.67
2017-07-28T05:47:10.400Z,1005.66
2017-07-28T05:47:50.935Z,1005.69
2017-07-28T05:48:31.445Z,1005.7
2017-07-28T05:49:12.004Z,1005.76
2017-07-28T05:49:52.815Z,1005.76
2017-07-28T05:50:33.260Z,1005.73
2017-07-28T05:51:13.872Z,1005.73
2017-07-28T05:51:54.370Z,1005.72
2017-07-28T05:52:34.914Z,1005.69
2017-07-28T05:53:15.514Z,1005.68
2017-07-28T05:53:55.990Z,1005.66
2017-07-28T05:54:36.504Z,1005.69
2017-07-28T05:55:17.021Z,1005.64
2017-07-28T05:55:57.545Z,1005.7
2017-07-28T05:56:38.144Z,1005.71
2017-07-28T05:57:18.593Z,1005.72
2017-07-28T05:57:59.111Z,1005.75
2017-07-28T05:58:39.637Z,1005.77
2017-07-28T05:59:20.183Z,1005.78
2017-07-28T06:00:00.768Z,1005.78
2017-07-28T06:00:41.296Z,1005.77
2017-07-28T06:01:21.881Z,1005.79
2017-07-28T06:02:02.375Z,1005.81
2017-07-28T06:02:42.929Z,1005.84
2017-07-28T06:03:23.429Z,1005.89
2017-07-28T06:04:03.947Z,1005.88
2017-07-28T06:04:44.465Z,1005.86
2017-07-28T06:05:24.977Z,1005.85
2017-07-28T06:06:05.627Z,1005.92
2017-07-28T06:06:46.319Z,1005.87
2017-07-28T06:07:28.221Z,1005.93
2017-07-28T06:08:09.178Z,1005.95
2017-07-28T06:08:49.677Z,1005.96
2017-07-28T06:09:30.216Z,1005.99
2017-07-28T06:10:10.721Z,1006
2017-07-28T06:10:51.316Z,1006.02
2017-07-28T06:11:32.731Z,1006
2017-07-28T06:12:13.353Z,1006.02
2017-07-28T06:12:56.455Z,1006.08
2017-07-28T06:13:40.056Z,1006
2017-07-28T06:14:21.280Z,1006.03
2017-07-28T06:15:06.717Z,1006.02
2017-07-28T06:15:52.991Z,1006
2017-07-28T06:16:33.991Z,1006.01
2017-07-28T06:17:14.822Z,1006
2017-07-28T06:17:56.136Z,1005.95
2017-07-28T06:18:36.709Z,1005.98
2017-07-28T06:19:18.547Z,1005.96
2017-07-28T06:20:00.655Z,1005.96
2017-07-28T06:22:03.114Z,1005.99
2017-07-28T06:27:18.921Z,1005.94
2017-07-28T06:28:01.142Z,1005.95
2017-07-28T06:28:41.860Z,1005.99
2017-07-28T06:29:28.075Z,1005.99
2017-07-28T06:30:11.227Z,1005.96
2017-07-28T06:30:54.527Z,1005.95
2017-07-28T06:31:36.410Z,1005.98
2017-07-28T06:32:27.370Z,1005.97
2017-07-28T06:33:07.553Z,1005.98
2017-07-28T06:33:48.093Z,1005.99
2017-07-28T06:34:28.920Z,1005.99
2017-07-28T06:35:09.810Z,1006.04
2017-07-28T06:35:51.809Z,1006.06
2017-07-28T06:36:35.800Z,1006.04
2017-07-28T06:37:17.454Z,1006.07
2017-07-28T06:38:04.212Z,1006.06
2017-07-28T06:38:45.685Z,1006.05
2017-07-28T06:39:26.353Z,1006.02
2017-07-28T06:40:07.674Z,1006
2017-07-28T06:40:53.023Z,1006.01
2017-07-28T06:41:33.938Z,1006.05
2017-07-28T06:42:29.637Z,1006.04
2017-07-28T06:43:15.444Z,1006.11
2017-07-28T06:44:15.460Z,1006.13
2017-07-28T06:45:00.721Z,1006.12
2017-07-28T06:45:46.278Z,1006.1
2017-07-28T06:46:29.936Z,1006.13
2017-07-28T06:47:10.553Z,1006.13
2017-07-28T06:48:03.603Z,1006.16
2017-07-28T06:48:46.139Z,1006.11
2017-07-28T06:49:29.880Z,1006.03
2017-07-28T06:50:15.754Z,1006.03
2017-07-28T06:50:57.021Z,1006.02
2017-07-28T06:51:42.032Z,1006.04
2017-07-28T06:52:24.648Z,1006.03
2017-07-28T06:53:15.848Z,1006.05
2017-07-28T06:53:59.469Z,1006.08
2017-07-28T06:54:40.927Z,1006.08
2017-07-28T06:55:21.481Z,1006.11
2017-07-28T06:56:02.579Z,1006.1
2017-07-28T06:56:43.553Z,1006.05
2017-07-28T06:57:27.828Z,1006.12
2017-07-28T06:58:12.545Z,1006.18
2017-07-28T06:58:55.448Z,1006.16
2017-07-28T06:59:36.761Z,1006.17
2017-07-28T07:00:17.323Z,1006.18
2017-07-28T07:01:03.630Z,1006.2
2017-07-28T07:01:45.923Z,1006.2
2017-07-28T07:02:27.072Z,1006.2
2017-07-28T07:03:09.579Z,1006.24
2017-07-28T07:03:51.414Z,1006.22
2017-07-28T07:04:31.902Z,1006.29
2017-07-28T07:05:15.995Z,1006.27
2017-07-28T07:05:56.626Z,1006.26
2017-07-28T07:06:37.653Z,1006.32
2017-07-28T07:07:21.492Z,1006.34
2017-07-28T07:08:02.188Z,1006.36
2017-07-28T07:08:42.775Z,1006.34
2017-07-28T07:09:23.360Z,1006.3
2017-07-28T07:10:03.998Z,1006.26
2017-07-28T07:10:48.415Z,1006.27
2017-07-28T07:11:29.088Z,1006.26
2017-07-28T07:12:11.434Z,1006.3
2017-07-28T07:12:51.593Z,1006.29
2017-07-28T07:13:32.090Z,1006.32
2017-07-28T07:14:12.735Z,1006.31
2017-07-28T07:14:55.704Z,1006.27
2017-07-28T07:15:36.273Z,1006.34
2017-07-28T07:16:16.722Z,1006.48
2017-07-28T07:16:57.283Z,1006.34
2017-07-28T07:17:37.923Z,1006.36
2017-07-28T07:18:18.490Z,1006.44
2017-07-28T07:18:59.038Z,1006.56
2017-07-28T07:19:40.041Z,1006.5
2017-07-28T07:20:20.571Z,1006.41
2017-07-28T07:22:19.835Z,1006.34
2017-07-28T07:23:00.294Z,1006.36
2017-07-28T07:23:43.492Z,1006.36
2017-07-28T07:24:25.292Z,1006.31
2017-07-28T07:25:05.871Z,1006.25
2017-07-28T07:25:46.711Z,1006.27
2017-07-28T07:26:27.304Z,1006.22
2017-07-28T07:27:07.779Z,1006.26
2017-07-28T07:27:48.319Z,1006.28
2017-07-28T07:28:28.873Z,1006.3
2017-07-28T07:29:09.613Z,1006.3
2017-07-28T07:29:50.145Z,1006.29
2017-07-28T07:30:30.905Z,1006.31
2017-07-28T07:31:11.532Z,1006.27
2017-07-28T07:31:52.565Z,1006.4
2017-07-28T07:32:33.630Z,1006.36
2017-07-28T07:33:14.096Z,1006.37
2017-07-28T07:33:54.679Z,1006.35
2017-07-28T07:34:37.043Z,1006.37
2017-07-28T07:35:17.588Z,1006.44
2017-07-28T07:35:58.154Z,1006.39
2017-07-28T07:36:40.425Z,1006.47
2017-07-28T07:37:20.914Z,1006.54
2017-07-28T07:38:01.715Z,1006.55
2017-07-28T07:38:42.421Z,1006.51
2017-07-28T07:39:23.700Z,1006.55
2017-07-28T07:40:04.231Z,1006.56
2017-07-28T07:40:44.751Z,1006.54
2017-07-28T07:41:25.334Z,1006.54
2017-07-28T07:42:05.841Z,1006.59
2017-07-28T07:42:46.347Z,1006.57
2017-07-28T07:43:26.897Z,1006.56
2017-07-28T07:44:07.599Z,1006.56
2017-07-28T07:44:48.106Z,1006.58
2017-07-28T07:45:28.615Z,1006.53
2017-07-28T07:46:09.298Z,1006.5
2017-07-28T07:46:49.928Z,1006.5
2017-07-28T07:47:30.387Z,1006.55
2017-07-28T07:48:10.902Z,1006.53
2017-07-28T07:48:51.463Z,1006.52
2017-07-28T07:49:31.979Z,1006.56
2017-07-28T07:50:12.471Z,1006.65
2017-07-28T07:50:53.086Z,1006.61
2017-07-28T07:51:33.760Z,1006.61
2017-07-28T07:52:14.415Z,1006.59
2017-07-28T07:52:55.061Z,1006.65
2017-07-28T07:53:35.804Z,1006.65
2017-07-28T07:54:17.009Z,1006.69
2017-07-28T07:54:57.614Z,1006.68
2017-07-28T07:55:38.131Z,1006.75
2017-07-28T07:56:18.676Z,1006.76
2017-07-28T07:56:59.349Z,1006.78
2017-07-28T07:57:39.993Z,1006.73
2017-07-28T07:58:20.751Z,1006.77
2017-07-28T07:59:01.263Z,1006.75
2017-07-28T07:59:41.868Z,1006.66
2017-07-28T08:00:22.381Z,1006.67
2017-07-28T08:01:02.875Z,1006.66
2017-07-28T08:01:43.399Z,1006.62
2017-07-28T08:02:23.961Z,1006.68
2017-07-28T08:03:06.411Z,1006.7
2017-07-28T08:03:47.133Z,1006.74
2017-07-28T08:04:27.705Z,1006.79
2017-07-28T08:05:08.393Z,1006.69
2017-07-28T08:05:49.231Z,1006.68
2017-07-28T08:06:29.728Z,1006.79
2017-07-28T08:07:10.233Z,1006.8
2017-07-28T08:07:50.897Z,1006.81
2017-07-28T08:08:31.545Z,1006.82
2017-07-28T08:09:12.229Z,1006.87
2017-07-28T08:09:52.732Z,1006.9
2017-07-28T08:10:33.265Z,1006.92
2017-07-28T08:11:13.736Z,1006.88
2017-07-28T08:11:54.236Z,1006.92
2017-07-28T08:12:34.762Z,1006.9
2017-07-28T08:13:15.270Z,1006.88
2017-07-28T08:13:55.769Z,1006.91
2017-07-28T08:14:36.274Z,1006.95
2017-07-28T08:15:16.894Z,1006.88
2017-07-28T08:15:57.501Z,1006.86
2017-07-28T08:16:38.080Z,1006.93
2017-07-28T08:17:18.575Z,1006.94
2017-07-28T08:17:59.331Z,1006.89
2017-07-28T08:18:39.849Z,1006.95
2017-07-28T08:19:20.403Z,1006.9
2017-07-28T08:20:00.954Z,1006.9
2017-07-28T08:20:41.582Z,1006.86
2017-07-28T08:21:22.092Z,1006.87
2017-07-28T08:22:02.598Z,1006.86
2017-07-28T08:22:43.172Z,1006.85
2017-07-28T08:23:23.676Z,1006.93
2017-07-28T08:24:04.221Z,1006.93
2017-07-28T08:24:44.837Z,1006.84
2017-07-28T08:25:25.386Z,1006.86
2017-07-28T08:26:05.877Z,1006.87
2017-07-28T08:26:46.387Z,1006.84
2017-07-28T08:27:26.855Z,1006.85
2017-07-28T08:28:07.351Z,1006.96
2017-07-28T08:28:47.977Z,1006.91
2017-07-28T08:29:28.597Z,1006.87
2017-07-28T08:30:09.130Z,1006.83
2017-07-28T08:30:49.625Z,1006.81
2017-07-28T08:31:30.111Z,1006.75
2017-07-28T08:32:10.636Z,1006.74
2017-07-28T08:32:51.125Z,1006.78
2017-07-28T08:33:31.748Z,1006.78
2017-07-28T08:34:12.289Z,1006.8